createdAt,value
2023-05-08T00:00:48.148Z,1.93
2023-05-08T00:01:48.324Z,1.82
2023-05-08T00:02:48.616Z,2.05
2023-05-08T00:03:48.917Z,1.85
2023-05-08T00:04:48.912Z,1.87
2023-05-08T00:05:49.064Z,1.94
2023-05-08T00:06:49.254Z,1.81
2023-05-08T00:07:49.645Z,1.78
2023-05-08T00:08:50.562Z,1.86
2023-05-08T00:09:49.872Z,1.51
2023-05-08T00:10:50.053Z,1.76
2023-05-08T00:11:50.252Z,1.52
2023-05-08T00:12:50.507Z,1.66
2023-05-08T00:13:50.726Z,1.77
2023-05-08T00:14:50.928Z,1.77
2023-05-08T00:15:51.245Z,1.74
2023-05-08T00:16:51.401Z,1.83
2023-05-08T00:17:51.618Z,1.83
2023-05-08T00:18:51.695Z,2.00
2023-05-08T00:19:51.884Z,1.67
2023-05-08T00:20:52.041Z,1.39
2023-05-08T00:21:52.244Z,1.99
2023-05-08T00:22:52.412Z,1.66
2023-05-08T00:23:52.584Z,1.59
2023-05-08T00:24:52.832Z,1.89
2023-05-08T00:25:52.988Z,1.98
2023-05-08T00:26:53.212Z,1.96
2023-05-08T00:27:53.387Z,1.92
2023-05-08T00:28:53.558Z,2.49
2023-05-08T00:29:53.735Z,1.78
2023-05-08T00:30:53.931Z,2.12
2023-05-08T00:31:54.657Z,1.77
2023-05-08T00:32:54.393Z,2.06
2023-05-08T00:33:54.493Z,1.91
2023-05-08T00:34:54.689Z,1.55
2023-05-08T00:35:54.863Z,1.90
2023-05-08T00:36:55.069Z,1.98
2023-05-08T00:37:55.255Z,1.75
2023-05-08T00:38:55.490Z,1.81
2023-05-08T00:39:55.662Z,1.55
2023-05-08T00:40:55.864Z,1.92
2023-05-08T00:41:56.029Z,1.95
2023-05-08T00:42:56.232Z,1.47
2023-05-08T00:43:56.407Z,1.88
2023-05-08T00:44:56.626Z,1.76
2023-05-08T00:45:56.867Z,1.48
2023-05-08T00:46:56.928Z,1.98
2023-05-08T00:47:57.149Z,1.63
2023-05-08T00:48:57.270Z,1.67
2023-05-08T00:49:57.409Z,1.93
2023-05-08T00:50:57.554Z,1.67
2023-05-08T00:51:57.727Z,1.89
2023-05-08T00:52:57.860Z,2.03
2023-05-08T00:53:58.004Z,1.73
2023-05-08T00:54:58.171Z,2.22
2023-05-08T00:55:58.299Z,1.54
2023-05-08T00:56:58.472Z,1.92
2023-05-08T00:57:58.612Z,2.60
2023-05-08T00:58:58.754Z,2.96
2023-05-08T00:59:58.923Z,3.12
2023-05-08T01:00:59.211Z,2.49
2023-05-08T01:01:59.714Z,2.34
2023-05-08T01:02:59.736Z,2.85
2023-05-08T01:03:59.908Z,2.76
2023-05-08T01:05:00.104Z,2.65
2023-05-08T01:06:00.300Z,2.61
2023-05-08T01:07:00.542Z,2.62
2023-05-08T01:08:00.749Z,1.97
2023-05-08T01:09:00.970Z,2.36
2023-05-08T01:10:01.222Z,2.74
2023-05-08T01:11:01.381Z,2.30
2023-05-08T01:12:01.642Z,2.25
2023-05-08T01:13:02.140Z,2.14
2023-05-08T01:14:02.025Z,2.36
2023-05-08T01:15:02.199Z,2.29
2023-05-08T01:16:02.372Z,2.53
2023-05-08T01:17:02.546Z,1.99
2023-05-08T01:18:02.775Z,2.21
2023-05-08T01:19:02.923Z,1.89
2023-05-08T01:20:03.093Z,2.46
2023-05-08T01:21:03.307Z,2.31
2023-05-08T01:22:03.500Z,2.09
2023-05-08T01:23:03.710Z,1.89
2023-05-08T01:24:03.963Z,1.84
2023-05-08T01:25:04.188Z,2.20
2023-05-08T01:26:04.393Z,2.29
2023-05-08T01:27:04.638Z,2.15
2023-05-08T01:28:04.847Z,2.13
2023-05-08T01:29:05.056Z,2.55
2023-05-08T01:30:05.294Z,2.02
2023-05-08T01:31:05.495Z,1.88
2023-05-08T01:32:05.700Z,2.03
2023-05-08T01:33:06.004Z,2.40
2023-05-08T01:34:06.273Z,2.11
2023-05-08T01:35:06.408Z,2.14
2023-05-08T01:36:06.569Z,2.45
2023-05-08T01:37:06.781Z,2.16
2023-05-08T01:38:06.981Z,1.83
2023-05-08T01:39:07.214Z,2.28
2023-05-08T01:40:07.405Z,1.47
2023-05-08T01:41:07.615Z,2.19
2023-05-08T01:42:07.829Z,2.31
2023-05-08T01:43:08.032Z,1.81
2023-05-08T01:44:08.344Z,1.64
2023-05-08T01:45:08.450Z,1.79
2023-05-08T01:46:08.692Z,1.58
2023-05-08T01:47:09.021Z,1.98
2023-05-08T01:48:09.175Z,2.00
2023-05-08T01:49:09.336Z,2.49
2023-05-08T01:50:09.689Z,2.14
2023-05-08T01:51:09.786Z,1.96
2023-05-08T01:52:09.928Z,1.97
2023-05-08T01:53:10.098Z,2.44
2023-05-08T01:54:10.421Z,2.17
2023-05-08T01:55:10.395Z,1.90
2023-05-08T01:56:10.563Z,2.01
2023-05-08T01:57:10.754Z,2.23
2023-05-08T01:58:10.826Z,2.31
2023-05-08T01:59:11.001Z,2.27
2023-05-08T02:00:11.186Z,1.84
2023-05-08T02:01:11.341Z,2.02
2023-05-08T02:02:11.524Z,2.18
2023-05-08T02:03:11.641Z,2.06
2023-05-08T02:04:11.849Z,2.34
2023-05-08T02:05:11.995Z,2.39
2023-05-08T02:06:12.204Z,2.51
2023-05-08T02:07:12.616Z,2.04
2023-05-08T02:08:12.658Z,2.39
2023-05-08T02:09:12.865Z,2.25
2023-05-08T02:10:13.228Z,1.99
2023-05-08T02:11:13.341Z,2.29
2023-05-08T02:12:13.444Z,2.09
2023-05-08T02:13:14.662Z,1.67
2023-05-08T02:14:14.613Z,2.10
2023-05-08T02:15:14.053Z,2.34
2023-05-08T02:16:14.336Z,2.17
2023-05-08T02:17:14.457Z,2.29
2023-05-08T02:18:14.646Z,2.53
2023-05-08T02:19:14.854Z,2.22
2023-05-08T02:20:15.358Z,1.89
2023-05-08T02:21:15.251Z,1.86
2023-05-08T02:22:15.517Z,1.76
2023-05-08T02:23:15.725Z,2.10
2023-05-08T02:24:15.915Z,2.22
2023-05-08T02:25:16.126Z,2.10
2023-05-08T02:26:16.341Z,6.39
2023-05-08T02:27:16.565Z,5.29
2023-05-08T02:28:16.838Z,8.48
2023-05-08T02:29:17.074Z,4.62
2023-05-08T02:30:17.225Z,5.89
2023-05-08T02:31:17.405Z,4.79
2023-05-08T02:32:17.759Z,3.19
2023-05-08T02:33:17.925Z,5.05
2023-05-08T02:34:18.061Z,3.81
2023-05-08T02:35:18.314Z,2.71
2023-05-08T02:36:18.523Z,2.71
2023-05-08T02:37:18.731Z,2.99
2023-05-08T02:38:18.939Z,2.13
2023-05-08T02:39:19.145Z,2.40
2023-05-08T02:40:19.322Z,2.62
2023-05-08T02:41:19.553Z,1.95
2023-05-08T02:42:19.761Z,1.95
2023-05-08T02:43:19.941Z,1.77
2023-05-08T02:44:20.106Z,1.96
2023-05-08T02:45:20.294Z,2.04
2023-05-08T02:46:20.498Z,1.96
2023-05-08T02:47:20.690Z,1.76
2023-05-08T02:48:20.807Z,2.04
2023-05-08T02:49:20.981Z,1.97
2023-05-08T02:50:21.266Z,2.10
2023-05-08T02:51:21.366Z,1.93
2023-05-08T02:52:21.528Z,2.58
2023-05-08T02:53:21.685Z,2.14
2023-05-08T02:54:21.844Z,2.28
2023-05-08T02:55:22.006Z,2.11
2023-05-08T02:56:22.234Z,2.22
2023-05-08T02:57:22.410Z,1.77
2023-05-08T02:58:22.667Z,1.87
2023-05-08T02:59:22.826Z,2.05
2023-05-08T03:00:23.057Z,1.86
2023-05-08T03:01:23.331Z,1.95
2023-05-08T03:02:23.523Z,1.80
2023-05-08T03:03:23.674Z,2.01
2023-05-08T03:04:23.813Z,1.81
2023-05-08T03:05:24.035Z,1.82
2023-05-08T03:06:24.299Z,1.95
2023-05-08T03:07:24.428Z,1.42
2023-05-08T03:08:24.630Z,1.42
2023-05-08T03:09:24.830Z,1.33
2023-05-08T03:10:25.085Z,1.01
2023-05-08T03:11:25.271Z,1.39
2023-05-08T03:12:25.507Z,1.05
2023-05-08T03:13:25.918Z,1.24
2023-05-08T03:14:25.906Z,1.34
2023-05-08T03:15:26.121Z,1.12
2023-05-08T03:16:26.377Z,1.14
2023-05-08T03:17:26.588Z,1.40
2023-05-08T03:18:26.725Z,1.31
2023-05-08T03:19:26.910Z,1.64
2023-05-08T03:20:27.134Z,1.31
2023-05-08T03:21:27.293Z,0.96
2023-05-08T03:22:27.479Z,1.20
2023-05-08T03:23:27.640Z,1.88
2023-05-08T03:24:27.768Z,2.42
2023-05-08T03:25:27.935Z,2.41
2023-05-08T03:26:28.128Z,3.58
2023-05-08T03:27:28.296Z,3.59
2023-05-08T03:28:28.389Z,3.23
2023-05-08T03:29:28.572Z,4.01
2023-05-08T03:30:28.701Z,2.21
2023-05-08T03:31:28.903Z,1.84
2023-05-08T03:32:29.080Z,1.64
2023-05-08T03:33:29.252Z,1.73
2023-05-08T03:34:29.428Z,1.38
2023-05-08T03:35:29.628Z,2.38
2023-05-08T03:36:29.836Z,2.51
2023-05-08T03:37:30.055Z,2.15
2023-05-08T03:38:30.221Z,1.54
2023-05-08T03:39:30.424Z,1.26
2023-05-08T03:40:30.606Z,1.60
2023-05-08T03:41:30.749Z,1.05
2023-05-08T03:42:30.919Z,1.07
2023-05-08T03:43:31.081Z,1.05
2023-05-08T03:44:31.214Z,1.26
2023-05-08T03:45:31.384Z,1.52
2023-05-08T03:46:31.632Z,1.16
2023-05-08T03:47:31.696Z,0.99
2023-05-08T03:48:31.834Z,1.38
2023-05-08T03:49:31.974Z,1.20
2023-05-08T03:50:32.124Z,1.25
2023-05-08T03:51:32.306Z,1.48
2023-05-08T03:52:32.561Z,1.24
2023-05-08T03:53:32.643Z,0.95
2023-05-08T03:54:32.837Z,0.97
2023-05-08T03:55:33.059Z,0.99
2023-05-08T03:56:33.242Z,1.09
2023-05-08T03:57:33.432Z,1.05
2023-05-08T03:58:33.604Z,1.03
2023-05-08T03:59:33.796Z,1.42
2023-05-08T04:00:33.992Z,1.25
2023-05-08T04:01:34.247Z,1.44
2023-05-08T04:02:34.578Z,5.25
2023-05-08T04:03:34.786Z,12.77
2023-05-08T04:04:34.923Z,9.17
2023-05-08T04:05:35.154Z,3.40
2023-05-08T04:06:48.687Z,1.20
2023-05-08T04:07:36.555Z,1.31
2023-05-08T04:08:35.702Z,1.44
2023-05-08T04:09:35.882Z,1.33
2023-05-08T04:10:36.056Z,1.38
2023-05-08T04:11:36.220Z,1.35
2023-05-08T04:12:36.423Z,1.60
2023-05-08T04:13:36.532Z,1.52
2023-05-08T04:14:36.699Z,1.38
2023-05-08T04:15:36.867Z,1.15
2023-05-08T04:16:37.053Z,1.30
2023-05-08T04:17:37.265Z,1.06
2023-05-08T04:18:37.366Z,1.54
2023-05-08T04:19:37.523Z,1.16
2023-05-08T04:20:37.691Z,1.14
2023-05-08T04:22:57.667Z,1.40
2023-05-08T04:23:57.630Z,1.36
2023-05-08T04:24:57.630Z,1.33
2023-05-08T04:25:57.626Z,1.14
2023-05-08T04:26:57.660Z,0.97
2023-05-08T04:27:57.669Z,1.30
2023-05-08T04:28:57.630Z,1.16
2023-05-08T04:29:57.629Z,1.41
2023-05-08T04:30:57.601Z,1.10
2023-05-08T04:31:57.619Z,0.91
2023-05-08T04:32:57.620Z,1.04
2023-05-08T04:33:57.571Z,1.13
2023-05-08T04:34:57.587Z,1.42
2023-05-08T04:35:57.557Z,0.85
2023-05-08T04:36:57.588Z,1.09
2023-05-08T04:37:57.553Z,1.55
2023-05-08T04:38:58.653Z,2.18
2023-05-08T04:39:57.530Z,1.94
2023-05-08T04:40:57.552Z,1.48
2023-05-08T04:41:57.522Z,1.59
2023-05-08T04:42:57.546Z,0.81
2023-05-08T04:43:57.499Z,0.63
2023-05-08T04:44:57.488Z,0.95
2023-05-08T04:45:57.574Z,0.95
2023-05-08T04:46:57.493Z,0.89
2023-05-08T04:47:57.521Z,1.13
2023-05-08T04:48:57.492Z,1.02
2023-05-08T04:49:58.033Z,1.28
2023-05-08T04:50:57.437Z,1.05
2023-05-08T04:51:57.461Z,1.17
2023-05-08T04:52:57.420Z,1.28
2023-05-08T04:53:57.403Z,1.24
2023-05-08T04:54:57.399Z,1.34
2023-05-08T04:55:57.424Z,1.52
2023-05-08T04:56:57.456Z,1.34
2023-05-08T04:57:57.517Z,1.39
2023-05-08T04:58:57.536Z,1.45
2023-05-08T04:59:57.599Z,1.53
2023-05-08T05:00:57.571Z,1.55
2023-05-08T05:01:57.668Z,1.13
2023-05-08T05:02:57.577Z,1.35
2023-05-08T05:03:57.570Z,1.65
2023-05-08T05:04:57.538Z,1.30
2023-05-08T05:05:57.499Z,1.60
2023-05-08T05:06:57.538Z,2.45
2023-05-08T05:07:57.510Z,2.47
2023-05-08T05:08:57.510Z,3.16
2023-05-08T05:09:57.474Z,5.14
2023-05-08T05:10:57.463Z,5.75
2023-05-08T05:11:58.293Z,7.53
2023-05-08T05:12:57.572Z,10.11
2023-05-08T05:13:57.441Z,11.16
2023-05-08T05:14:57.463Z,9.12
2023-05-08T05:15:57.458Z,2.62
2023-05-08T05:16:57.453Z,2.02
2023-05-08T05:17:57.566Z,1.46
2023-05-08T05:18:57.485Z,1.71
2023-05-08T05:19:57.527Z,11.43
2023-05-08T05:20:57.523Z,3.14
2023-05-08T05:21:57.570Z,2.04
2023-05-08T05:22:57.525Z,1.80
2023-05-08T05:23:57.498Z,1.84
2023-05-08T05:24:57.492Z,1.66
2023-05-08T05:25:57.488Z,1.46
2023-05-08T05:26:57.756Z,1.76
2023-05-08T05:27:57.476Z,1.47
2023-05-08T05:28:57.952Z,1.47
2023-05-08T05:29:57.425Z,1.16
2023-05-08T05:30:57.414Z,1.64
2023-05-08T05:31:58.068Z,1.71
2023-05-08T05:32:57.506Z,1.31
2023-05-08T05:33:57.596Z,0.79
2023-05-08T05:34:57.489Z,0.86
2023-05-08T05:35:57.541Z,1.12
2023-05-08T05:36:57.687Z,1.14
2023-05-08T05:37:57.711Z,1.20
2023-05-08T05:38:57.685Z,1.45
2023-05-08T05:39:57.716Z,0.90
2023-05-08T05:40:57.722Z,1.73
2023-05-08T05:41:57.885Z,1.44
2023-05-08T05:42:57.854Z,1.97
2023-05-08T05:43:57.940Z,1.75
2023-05-08T05:44:57.925Z,1.81
2023-05-08T05:45:57.900Z,1.65
2023-05-08T05:46:57.943Z,1.83
2023-05-08T05:47:58.116Z,1.06
2023-05-08T05:48:57.901Z,1.33
2023-05-08T05:49:57.912Z,2.35
2023-05-08T05:50:57.961Z,1.39
2023-05-08T05:51:57.912Z,1.35
2023-05-08T05:52:57.920Z,1.34
2023-05-08T05:53:57.997Z,4.27
2023-05-08T05:54:57.947Z,7.04
2023-05-08T05:55:57.954Z,6.58
2023-05-08T05:56:57.989Z,5.43
2023-05-08T05:57:58.048Z,2.58
2023-05-08T05:58:58.019Z,1.18
2023-05-08T05:59:58.002Z,3.62
2023-05-08T06:00:58.073Z,4.33
2023-05-08T06:01:58.158Z,5.01
2023-05-08T06:02:58.370Z,2.91
2023-05-08T06:03:58.371Z,1.82
2023-05-08T06:04:58.310Z,1.57
2023-05-08T06:05:58.379Z,1.28
2023-05-08T06:06:58.383Z,1.62
2023-05-08T06:07:58.400Z,1.39
2023-05-08T06:08:58.423Z,1.57
2023-05-08T06:09:58.509Z,1.19
2023-05-08T06:10:58.452Z,0.80
2023-05-08T06:11:58.467Z,0.96
2023-05-08T06:12:58.524Z,1.22
2023-05-08T06:13:58.456Z,0.97
2023-05-08T06:14:58.477Z,0.93
2023-05-08T06:15:59.585Z,1.14
2023-05-08T06:16:58.560Z,1.40
2023-05-08T06:17:58.600Z,1.40
2023-05-08T06:18:58.584Z,1.20
2023-05-08T06:19:58.571Z,1.55
2023-05-08T06:20:59.458Z,1.14
2023-05-08T06:21:58.717Z,1.27
2023-05-08T06:22:58.984Z,0.85
2023-05-08T06:23:58.782Z,1.23
2023-05-08T06:24:58.824Z,1.19
2023-05-08T06:25:58.888Z,0.95
2023-05-08T06:26:58.922Z,1.38
2023-05-08T06:27:59.170Z,1.11
2023-05-08T06:28:58.995Z,0.89
2023-05-08T06:29:59.065Z,1.13
2023-05-08T06:30:59.128Z,1.18
2023-05-08T06:31:59.167Z,1.20
2023-05-08T06:32:59.195Z,0.90
2023-05-08T06:33:59.259Z,0.66
2023-05-08T06:34:59.384Z,1.12
2023-05-08T06:36:00.046Z,0.80
2023-05-08T06:36:59.353Z,0.88
2023-05-08T06:37:59.493Z,0.67
2023-05-08T06:38:59.497Z,0.65
2023-05-08T06:40:10.903Z,0.96
2023-05-08T06:41:00.561Z,0.72
2023-05-08T06:41:59.564Z,0.73
2023-05-08T06:42:59.581Z,0.54
2023-05-08T06:43:59.817Z,1.16
2023-05-08T06:45:00.594Z,0.69
2023-05-08T06:45:59.658Z,0.85
2023-05-08T06:46:59.595Z,0.85
2023-05-08T06:47:59.668Z,0.84
2023-05-08T06:48:59.590Z,0.70
2023-05-08T06:49:59.658Z,0.81
2023-05-08T06:50:59.619Z,0.93
2023-05-08T06:52:00.572Z,0.75
2023-05-08T06:52:59.680Z,0.73
2023-05-08T06:53:59.845Z,0.91
2023-05-08T06:54:59.660Z,0.88
2023-05-08T06:56:00.245Z,0.70
2023-05-08T06:56:59.694Z,0.90
2023-05-08T06:58:00.437Z,0.76
2023-05-08T06:59:07.916Z,0.73
2023-05-08T07:00:00.574Z,0.85
2023-05-08T07:01:00.489Z,1.19
2023-05-08T07:01:59.603Z,1.33
2023-05-08T07:02:59.949Z,1.22
2023-05-08T07:03:59.596Z,0.90
2023-05-08T07:04:59.615Z,0.80
2023-05-08T07:05:59.555Z,1.13
2023-05-08T07:06:59.563Z,1.32
2023-05-08T07:08:00.492Z,1.52
2023-05-08T07:08:59.543Z,1.57
2023-05-08T07:09:59.582Z,0.98
2023-05-08T07:10:59.527Z,1.08
2023-05-08T07:11:59.602Z,1.43
2023-05-08T07:12:59.535Z,1.50
2023-05-08T07:13:59.640Z,1.01
2023-05-08T07:14:59.675Z,1.09
2023-05-08T07:15:59.625Z,1.12
2023-05-08T07:16:59.664Z,0.85
2023-05-08T07:18:00.522Z,1.26
2023-05-08T07:19:00.016Z,1.14
2023-05-08T07:20:00.545Z,1.07
2023-05-08T07:21:00.701Z,1.10
2023-05-08T07:21:59.765Z,1.66
2023-05-08T07:23:00.207Z,0.79
2023-05-08T07:23:59.937Z,0.91
2023-05-08T07:24:59.810Z,0.92
2023-05-08T07:26:00.068Z,1.58
2023-05-08T07:27:02.156Z,1.49
2023-05-08T07:28:01.274Z,1.14
2023-05-08T07:28:59.820Z,1.14
2023-05-08T07:29:59.788Z,0.88
2023-05-08T07:30:59.758Z,1.38
2023-05-08T07:31:59.863Z,1.16
2023-05-08T07:32:59.839Z,0.86
2023-05-08T07:33:59.803Z,1.11
2023-05-08T07:35:00.857Z,0.95
2023-05-08T07:35:59.797Z,0.90
2023-05-08T07:36:59.760Z,1.18
2023-05-08T07:37:59.749Z,1.16
2023-05-08T07:38:59.695Z,1.19
2023-05-08T07:39:59.723Z,1.01
2023-05-08T07:40:59.825Z,1.16
2023-05-08T07:41:59.695Z,1.16
2023-05-08T07:42:59.725Z,1.37
2023-05-08T07:43:59.680Z,1.39
2023-05-08T07:44:59.708Z,0.76
2023-05-08T07:45:59.689Z,1.14
2023-05-08T07:46:59.736Z,0.94
2023-05-08T07:47:59.744Z,1.46
2023-05-08T07:48:59.853Z,1.59
2023-05-08T07:49:59.693Z,1.19
2023-05-08T07:50:59.758Z,1.54
2023-05-08T07:51:59.844Z,1.72
2023-05-08T07:52:59.998Z,1.76
2023-05-08T07:53:59.820Z,1.60
2023-05-08T07:54:59.955Z,1.94
2023-05-08T07:55:59.866Z,1.90
2023-05-08T07:56:59.928Z,1.88
2023-05-08T07:58:05.003Z,2.13
2023-05-08T07:58:59.863Z,1.48
2023-05-08T07:59:59.888Z,1.72
2023-05-08T08:01:00.512Z,1.58
2023-05-08T08:01:59.933Z,1.73
2023-05-08T08:03:00.554Z,1.50
2023-05-08T08:04:01.460Z,1.74
2023-05-08T08:05:00.994Z,1.50
2023-05-08T08:06:00.299Z,1.72
2023-05-08T08:07:03.030Z,2.18
2023-05-08T08:08:00.227Z,1.57
2023-05-08T08:09:00.256Z,2.05
2023-05-08T08:10:00.254Z,2.31
2023-05-08T08:11:02.958Z,2.38
2023-05-08T08:12:00.264Z,2.48
2023-05-08T08:13:01.084Z,1.67
2023-05-08T08:14:01.429Z,1.52
2023-05-08T08:15:00.291Z,1.78
2023-05-08T08:16:01.001Z,1.50
2023-05-08T08:17:00.485Z,2.01
2023-05-08T08:18:00.457Z,1.20
2023-05-08T08:19:00.355Z,1.80
2023-05-08T08:20:00.368Z,1.21
2023-05-08T08:21:00.314Z,1.56
2023-05-08T08:22:02.055Z,1.63
2023-05-08T08:23:00.276Z,1.78
2023-05-08T08:24:01.067Z,1.99
2023-05-08T08:25:00.511Z,1.95
2023-05-08T08:26:00.316Z,1.94
2023-05-08T08:27:03.062Z,1.60
2023-05-08T08:28:00.569Z,1.63
2023-05-08T08:29:00.338Z,1.57
2023-05-08T08:30:15.679Z,1.51
2023-05-08T08:31:02.524Z,1.83
2023-05-08T08:32:00.386Z,1.81
2023-05-08T08:33:00.609Z,1.61
2023-05-08T08:34:00.330Z,1.93
2023-05-08T08:35:00.401Z,1.85
2023-05-08T08:36:01.012Z,1.88
2023-05-08T08:37:00.391Z,2.03
2023-05-08T08:38:00.409Z,2.44
2023-05-08T08:39:00.451Z,2.07
2023-05-08T08:40:00.428Z,2.51
2023-05-08T08:41:00.502Z,1.82
2023-05-08T08:42:01.070Z,2.00
2023-05-08T08:43:00.537Z,2.47
2023-05-08T08:44:02.502Z,2.29
2023-05-08T08:45:00.630Z,1.79
2023-05-08T08:46:00.698Z,1.74
2023-05-08T08:47:00.665Z,1.42
2023-05-08T08:48:00.804Z,1.50
2023-05-08T08:49:01.531Z,1.60
2023-05-08T08:50:00.777Z,1.59
2023-05-08T08:51:00.748Z,1.73
2023-05-08T08:52:00.757Z,1.65
2023-05-08T08:53:00.786Z,1.54
2023-05-08T08:54:01.564Z,1.45
2023-05-08T08:55:00.757Z,1.91
2023-05-08T08:56:00.679Z,1.67
2023-05-08T08:57:00.699Z,1.64
2023-05-08T08:58:00.653Z,1.62
2023-05-08T08:59:00.794Z,1.81
2023-05-08T09:00:00.799Z,3.10
2023-05-08T09:01:00.725Z,2.53
2023-05-08T09:02:01.630Z,1.80
2023-05-08T09:03:00.939Z,2.12
2023-05-08T09:04:00.914Z,1.93
2023-05-08T09:05:00.801Z,2.44
2023-05-08T09:06:00.864Z,2.51
2023-05-08T09:07:00.885Z,1.48
2023-05-08T09:08:01.151Z,1.56
2023-05-08T09:09:01.532Z,1.75
2023-05-08T09:10:15.572Z,1.40
2023-05-08T09:11:20.452Z,1.44
2023-05-08T09:12:20.414Z,1.35
2023-05-08T09:13:20.457Z,1.54
2023-05-08T09:14:20.402Z,1.50
2023-05-08T09:15:20.426Z,1.31
2023-05-08T09:16:20.425Z,1.10
2023-05-08T09:17:20.485Z,1.08
2023-05-08T09:18:20.428Z,1.27
2023-05-08T09:19:22.388Z,1.45
2023-05-08T09:20:20.436Z,1.47
2023-05-08T09:21:20.370Z,0.96
2023-05-08T09:22:20.396Z,1.42
2023-05-08T09:23:20.425Z,1.36
2023-05-08T09:24:20.341Z,1.46
2023-05-08T09:25:20.313Z,1.40
2023-05-08T09:26:20.379Z,0.90
2023-05-08T09:27:20.343Z,1.24
2023-05-08T09:28:20.295Z,1.34
2023-05-08T09:29:22.922Z,1.06
2023-05-08T09:30:20.313Z,0.96
2023-05-08T09:31:20.276Z,0.84
2023-05-08T09:32:20.276Z,0.83
2023-05-08T09:33:20.367Z,0.60
2023-05-08T09:34:20.257Z,0.93
2023-05-08T09:35:20.230Z,1.05
2023-05-08T09:36:20.415Z,1.02
2023-05-08T09:37:22.921Z,0.99
2023-05-08T09:38:20.229Z,1.18
2023-05-08T09:39:20.230Z,0.99
2023-05-08T09:40:21.033Z,1.08
2023-05-08T09:41:20.187Z,0.86
2023-05-08T09:42:20.369Z,1.04
2023-05-08T09:43:20.229Z,1.08
2023-05-08T09:44:20.142Z,0.75
2023-05-08T09:45:20.835Z,0.69
2023-05-08T09:46:20.232Z,0.82
2023-05-08T09:47:20.200Z,0.96
2023-05-08T09:48:20.107Z,1.09
2023-05-08T09:49:20.226Z,0.98
2023-05-08T09:50:20.082Z,1.49
2023-05-08T09:51:20.023Z,0.92
2023-05-08T09:52:20.096Z,0.89
2023-05-08T09:53:20.935Z,1.11
2023-05-08T09:54:19.974Z,1.43
2023-05-08T09:55:20.174Z,1.03
2023-05-08T09:56:20.058Z,1.04
2023-05-08T09:57:20.092Z,0.90
2023-05-08T09:58:20.099Z,0.84
2023-05-08T09:59:20.937Z,0.88
2023-05-08T10:00:20.041Z,0.73
2023-05-08T10:01:20.995Z,0.56
2023-05-08T10:02:19.992Z,0.70
2023-05-08T10:03:19.977Z,0.66
2023-05-08T10:04:19.938Z,0.72
2023-05-08T10:05:19.942Z,0.73
2023-05-08T10:06:19.932Z,0.88
2023-05-08T10:07:20.413Z,0.53
2023-05-08T10:08:20.095Z,0.88
2023-05-08T10:09:19.787Z,0.84
2023-05-08T10:10:19.706Z,0.73
2023-05-08T10:11:19.769Z,0.72
2023-05-08T10:12:19.714Z,1.07
2023-05-08T10:13:19.745Z,0.93
2023-05-08T10:14:19.677Z,0.85
2023-05-08T10:15:19.669Z,1.05
2023-05-08T10:16:19.650Z,0.79
2023-05-08T10:17:19.798Z,1.28
2023-05-08T10:18:19.610Z,1.62
2023-05-08T10:19:19.639Z,1.20
2023-05-08T10:20:21.356Z,1.11
2023-05-08T10:21:19.598Z,0.94
2023-05-08T10:22:19.521Z,1.13
2023-05-08T10:23:19.478Z,0.96
2023-05-08T10:24:19.668Z,0.98
2023-05-08T10:25:19.452Z,0.96
2023-05-08T10:26:19.451Z,1.63
2023-05-08T10:27:19.426Z,1.42
2023-05-08T10:28:19.944Z,1.92
2023-05-08T10:29:19.602Z,1.81
2023-05-08T10:30:19.372Z,2.21
2023-05-08T10:31:22.108Z,2.00
2023-05-08T10:32:19.335Z,1.79
2023-05-08T10:33:19.327Z,0.97
2023-05-08T10:34:19.327Z,1.15
2023-05-08T10:35:19.251Z,0.86
2023-05-08T10:36:19.214Z,0.77
2023-05-08T10:37:19.826Z,0.86
2023-05-08T10:38:19.140Z,1.03
2023-05-08T10:39:20.920Z,1.77
2023-05-08T10:40:19.103Z,1.77
2023-05-08T10:41:19.925Z,2.20
2023-05-08T10:42:19.053Z,4.59
2023-05-08T10:43:19.043Z,4.96
2023-05-08T10:44:18.988Z,7.40
2023-05-08T10:45:18.972Z,5.22
2023-05-08T10:46:19.011Z,2.40
2023-05-08T10:47:19.011Z,1.45
2023-05-08T10:48:18.950Z,1.75
2023-05-08T10:49:18.917Z,1.26
2023-05-08T10:50:18.917Z,1.33
2023-05-08T10:51:18.894Z,1.58
2023-05-08T10:52:18.872Z,1.30
2023-05-08T10:53:18.890Z,3.05
2023-05-08T10:54:18.860Z,1.84
2023-05-08T10:55:19.449Z,1.28
2023-05-08T10:56:18.794Z,3.45
2023-05-08T10:57:18.757Z,2.12
2023-05-08T10:58:18.757Z,1.54
2023-05-08T10:59:19.048Z,3.48
2023-05-08T11:00:18.724Z,2.45
2023-05-08T11:01:18.728Z,2.22
2023-05-08T11:02:18.715Z,2.82
2023-05-08T11:03:30.468Z,1.54
2023-05-08T11:04:19.719Z,1.40
2023-05-08T11:05:18.564Z,1.33
2023-05-08T11:06:18.603Z,1.83
2023-05-08T11:07:18.538Z,0.99
2023-05-08T11:08:18.543Z,0.80
2023-05-08T11:09:18.604Z,1.29
2023-05-08T11:10:18.535Z,0.91
2023-05-08T11:11:18.502Z,1.35
2023-05-08T11:12:21.421Z,0.94
2023-05-08T11:13:18.536Z,1.02
2023-05-08T11:14:18.521Z,1.23
2023-05-08T11:15:18.398Z,0.54
2023-05-08T11:16:18.393Z,0.94
2023-05-08T11:17:18.343Z,0.77
2023-05-08T11:18:18.309Z,0.79
2023-05-08T11:19:18.226Z,1.19
2023-05-08T11:20:18.238Z,1.03
2023-05-08T11:21:18.182Z,1.23
2023-05-08T11:22:20.929Z,0.91
2023-05-08T11:23:18.633Z,1.02
2023-05-08T11:24:21.004Z,0.79
2023-05-08T11:25:18.024Z,1.17
2023-05-08T11:26:17.971Z,1.24
2023-05-08T11:27:17.891Z,4.31
2023-05-08T11:28:17.912Z,1.45
2023-05-08T11:29:17.852Z,1.57
2023-05-08T11:30:17.838Z,1.70
2023-05-08T11:31:17.840Z,1.89
2023-05-08T11:32:17.755Z,2.17
2023-05-08T11:33:17.668Z,1.87
2023-05-08T11:34:17.677Z,0.91
2023-05-08T11:35:17.598Z,1.02
2023-05-08T11:36:17.514Z,0.98
2023-05-08T11:37:17.459Z,1.16
2023-05-08T11:38:17.444Z,0.91
2023-05-08T11:39:17.417Z,1.21
2023-05-08T11:40:17.331Z,2.03
2023-05-08T11:41:17.288Z,1.26
2023-05-08T11:42:17.249Z,1.19
2023-05-08T11:43:17.289Z,2.27
2023-05-08T11:44:17.233Z,1.82
2023-05-08T11:45:17.203Z,2.88
2023-05-08T11:46:17.243Z,1.38
2023-05-08T11:47:17.212Z,1.03
2023-05-08T11:48:17.109Z,1.44
2023-05-08T11:49:17.715Z,2.27
2023-05-08T11:50:17.185Z,1.36
2023-05-08T11:51:17.007Z,1.61
2023-05-08T11:52:16.980Z,1.27
2023-05-08T11:53:16.945Z,1.44
2023-05-08T11:54:16.903Z,1.05
2023-05-08T11:55:16.824Z,1.22
2023-05-08T11:56:16.797Z,1.36
2023-05-08T11:57:16.742Z,1.40
2023-05-08T11:58:16.697Z,1.85
2023-05-08T11:59:16.690Z,1.18
2023-05-08T12:00:16.961Z,1.14
2023-05-08T12:01:16.621Z,1.96
2023-05-08T12:02:16.676Z,1.57
2023-05-08T12:03:16.819Z,1.37
2023-05-08T12:04:16.907Z,1.77
2023-05-08T12:05:16.599Z,1.60
2023-05-08T12:06:16.561Z,1.67
2023-05-08T12:07:16.554Z,1.61
2023-05-08T12:08:16.556Z,1.42
2023-05-08T12:09:16.547Z,1.45
2023-05-08T12:10:17.390Z,1.91
2023-05-08T12:11:16.567Z,2.15
2023-05-08T12:12:16.660Z,2.17
2023-05-08T12:13:16.703Z,2.25
2023-05-08T12:14:16.607Z,2.35
2023-05-08T12:15:16.620Z,2.24
2023-05-08T12:16:17.455Z,2.39
2023-05-08T12:17:16.705Z,2.41
2023-05-08T12:18:16.639Z,2.06
2023-05-08T12:19:16.563Z,2.18
2023-05-08T12:20:17.024Z,2.61
2023-05-08T12:21:16.593Z,2.35
2023-05-08T12:22:16.533Z,2.34
2023-05-08T12:23:16.502Z,3.21
2023-05-08T12:24:16.468Z,2.48
2023-05-08T12:25:16.591Z,2.47
2023-05-08T12:26:16.386Z,2.69
2023-05-08T12:27:16.437Z,2.92
2023-05-08T12:28:16.316Z,2.45
2023-05-08T12:29:16.504Z,2.66
2023-05-08T12:30:16.800Z,2.65
2023-05-08T12:31:16.182Z,2.95
2023-05-08T12:32:16.244Z,2.97
2023-05-08T12:33:16.159Z,2.62
2023-05-08T12:34:16.154Z,2.27
2023-05-08T12:35:16.236Z,6.29
2023-05-08T12:36:16.192Z,2.95
2023-05-08T12:37:16.241Z,3.02
2023-05-08T12:38:16.182Z,3.07
2023-05-08T12:39:16.457Z,2.96
2023-05-08T12:40:16.243Z,3.01
2023-05-08T12:41:16.082Z,2.33
2023-05-08T12:42:16.074Z,2.93
2023-05-08T12:43:16.937Z,2.81
2023-05-08T12:44:16.032Z,3.11
2023-05-08T12:45:15.904Z,2.69
2023-05-08T12:46:15.942Z,2.74
2023-05-08T12:47:15.803Z,2.20
2023-05-08T12:48:15.781Z,2.69
2023-05-08T12:49:15.754Z,4.14
2023-05-08T12:50:15.922Z,4.81
2023-05-08T12:51:15.684Z,4.39
2023-05-08T12:52:15.891Z,3.68
2023-05-08T12:53:15.623Z,3.48
2023-05-08T12:54:15.644Z,2.77
2023-05-08T12:55:15.651Z,3.22
2023-05-08T12:56:15.625Z,3.70
2023-05-08T12:57:15.635Z,2.76
2023-05-08T12:58:16.091Z,3.44
2023-05-08T12:59:15.678Z,2.65
2023-05-08T13:00:16.002Z,3.64
2023-05-08T13:01:15.596Z,3.13
2023-05-08T13:02:15.668Z,2.95
2023-05-08T13:03:15.753Z,3.23
2023-05-08T13:04:15.692Z,3.13
2023-05-08T13:05:16.473Z,3.23
2023-05-08T13:06:15.601Z,3.45
2023-05-08T13:07:15.612Z,3.95
2023-05-08T13:08:15.575Z,3.84
2023-05-08T13:09:15.601Z,2.89
2023-05-08T13:10:15.910Z,3.21
2023-05-08T13:11:15.601Z,3.43
2023-05-08T13:12:15.588Z,3.63
2023-05-08T13:13:15.655Z,3.20
2023-05-08T13:14:15.600Z,3.12
2023-05-08T13:15:15.724Z,3.22
2023-05-08T13:16:15.781Z,3.26
2023-05-08T13:17:15.633Z,3.25
2023-05-08T13:18:15.608Z,3.52
2023-05-08T13:19:15.597Z,3.09
2023-05-08T13:20:15.785Z,3.24
2023-05-08T13:21:15.748Z,3.34